Time;durP1;ratioP1;P1;durP2;ratioP2;P2;SDS_P1;SDS_P2;PMS_P1;PMS_P2;Temp;Humidity;BMP_temperature;BMP_pressure;BME280_temperature;BME280_humidity;BME280_pressure;Samples;Min_cycle;Max_cycle;Signal;HPM_P1;HPM_P2
2023/09/26 00:01:53;;;;;;;4.47;2.10;;;15.50;99.90;;;;;;5044063;28;20049;-63
2023/09/26 00:04:20;;;;;;;2.28;2.10;;;15.50;99.90;;;;;;5048673;28;20117;-63
2023/09/26 00:06:45;;;;;;;2.33;2.20;;;15.50;99.90;;;;;;5032015;28;20076;-64
2023/09/26 00:09:12;;;;;;;2.60;2.00;;;15.50;99.90;;;;;;5048480;28;20123;-64
2023/09/26 00:11:38;;;;;;;3.60;2.22;;;15.40;99.90;;;;;;5048196;28;20041;-64
2023/09/26 00:14:05;;;;;;;2.40;2.17;;;15.40;99.90;;;;;;5049236;28;20068;-63
2023/09/26 00:16:30;;;;;;;3.00;2.28;;;15.40;99.90;;;;;;5048320;28;20584;-63
2023/09/26 00:18:56;;;;;;;2.20;2.00;;;15.40;99.90;;;;;;5048866;28;20124;-64
2023/09/26 00:21:22;;;;;;;2.30;1.95;;;15.30;99.90;;;;;;5048275;28;20033;-63
2023/09/26 00:23:47;;;;;;;5.43;2.20;;;15.30;99.90;;;;;;5050690;28;20456;-63
2023/09/26 00:26:13;;;;;;;2.15;1.95;;;15.30;99.90;;;;;;5030365;28;20053;-63
2023/09/26 00:28:39;;;;;;;3.15;2.40;;;15.20;99.90;;;;;;5050105;28;20082;-63
2023/09/26 00:31:05;;;;;;;5.55;2.55;;;15.20;99.90;;;;;;5048553;28;20041;-63
2023/09/26 00:33:33;;;;;;;7.50;2.80;;;15.20;99.90;;;;;;5037013;28;20037;-64
2023/09/26 00:36:10;;;;;;;4.18;2.30;;;15.10;99.90;;;;;;5065192;28;20095;-63
2023/09/26 00:38:36;;;;;;;2.88;2.45;;;15.10;99.90;;;;;;5047719;28;20041;-64
2023/09/26 00:41:02;;;;;;;3.22;2.40;;;15.10;99.90;;;;;;5048658;28;20037;-63
2023/09/26 00:43:28;;;;;;;2.38;2.10;;;15.10;99.90;;;;;;5046540;28;20040;-63
2023/09/26 00:45:55;;;;;;;2.45;2.25;;;15.00;99.90;;;;;;5050258;28;20106;-64
2023/09/26 00:48:23;;;;;;;4.25;2.63;;;15.00;99.90;;;;;;5047607;28;20048;-63
2023/09/26 00:50:51;;;;;;;2.65;2.45;;;15.00;99.90;;;;;;5049952;28;20045;-64
2023/09/26 00:53:17;;;;;;;3.05;2.65;;;15.00;99.90;;;;;;5047246;28;20090;-63
2023/09/26 00:55:44;;;;;;;4.00;2.58;;;15.00;99.90;;;;;;5048863;28;20467;-64
2023/09/26 00:58:11;;;;;;;4.22;2.38;;;14.90;99.90;;;;;;5049566;28;20041;-63
2023/09/26 01:00:38;;;;;;;2.00;1.90;;;14.90;99.90;;;;;;5047553;28;20124;-63
2023/09/26 01:03:04;;;;;;;2.70;2.50;;;14.90;99.90;;;;;;5048936;28;20049;-64
2023/09/26 01:05:31;;;;;;;3.90;2.47;;;14.80;99.90;;;;;;5043380;28;20083;-64
2023/09/26 01:07:57;;;;;;;2.13;2.03;;;14.90;99.90;;;;;;5049294;28;20519;-63
2023/09/26 01:10:22;;;;;;;3.38;2.40;;;14.80;99.90;;;;;;5045714;28;20115;-63
2023/09/26 01:12:49;;;;;;;3.67;2.47;;;14.80;99.90;;;;;;5030562;28;20403;-64
2023/09/26 01:15:35;;;;;;;5.20;2.42;;;14.70;99.90;;;;;;5064944;28;20084;-63
2023/09/26 01:18:12;;;;;;;2.30;2.20;;;14.70;99.90;;;;;;5047874;28;20072;-63
2023/09/26 01:20:43;;;;;;;5.80;2.20;;;14.70;99.90;;;;;;5048657;28;20091;-63
2023/09/26 01:23:11;;;;;;;2.72;2.53;;;14.60;99.90;;;;;;5036836;28;20445;-63
2023/09/26 01:25:37;;;;;;;4.68;2.38;;;14.70;99.90;;;;;;5047524;28;20092;-63
2023/09/26 01:28:07;;;;;;;3.80;2.03;;;14.60;99.90;;;;;;5048686;28;20391;-63
2023/09/26 01:30:33;;;;;;;2.55;2.28;;;14.60;99.90;;;;;;5039991;28;20116;-63
2023/09/26 01:33:00;;;;;;;3.78;2.30;;;14.60;99.90;;;;;;5029481;28;20506;-63
2023/09/26 01:35:26;;;;;;;2.42;2.22;;;14.60;99.90;;;;;;5062597;28;20107;-63
2023/09/26 01:37:51;;;;;;;2.60;2.40;;;14.60;99.90;;;;;;5048554;28;20041;-63
2023/09/26 01:40:17;;;;;;;2.70;2.40;;;14.60;99.90;;;;;;5040762;28;20037;-63
2023/09/26 01:42:43;;;;;;;3.15;2.47;;;14.60;99.90;;;;;;5027325;28;20060;-63
2023/09/26 01:45:09;;;;;;;2.42;2.22;;;14.60;99.90;;;;;;5037319;28;20045;-63
2023/09/26 01:47:48;;;;;;;4.40;2.17;;;14.50;99.90;;;;;;5038199;28;20057;-63
2023/09/26 01:50:19;;;;;;;3.63;2.17;;;14.50;99.90;;;;;;5036760;28;20064;-63
2023/09/26 01:52:46;;;;;;;4.68;2.72;;;14.50;99.90;;;;;;5042506;28;20047;-63
2023/09/26 01:55:21;;;;;;;2.90;2.45;;;14.40;99.90;;;;;;5039771;28;20042;-63
2023/09/26 01:57:47;;;;;;;2.60;2.33;;;14.30;99.90;;;;;;5033187;28;20041;-63
2023/09/26 02:00:14;;;;;;;4.90;2.15;;;14.30;99.90;;;;;;5039731;28;20052;-64
2023/09/26 02:02:44;;;;;;;2.58;2.38;;;14.30;99.90;;;;;;5038094;28;20091;-63
2023/09/26 02:05:11;;;;;;;3.70;2.65;;;14.20;99.90;;;;;;5034042;28;20033;-63
2023/09/26 02:07:37;;;;;;;2.85;2.65;;;14.20;99.90;;;;;;5045509;28;20053;-63
2023/09/26 02:10:04;;;;;;;3.88;2.42;;;14.20;99.90;;;;;;5035019;28;20059;-63
2023/09/26 02:12:30;;;;;;;4.10;2.15;;;14.10;99.90;;;;;;5044261;28;20040;-63
2023/09/26 02:14:56;;;;;;;4.82;2.60;;;14.10;99.90;;;;;;5045712;28;20107;-63
2023/09/26 02:17:22;;;;;;;5.88;2.85;;;14.00;99.90;;;;;;5046418;28;20049;-63
2023/09/26 02:19:48;;;;;;;5.55;2.72;;;13.90;99.90;;;;;;5045024;28;20372;-63
2023/09/26 02:22:13;;;;;;;5.00;2.75;;;13.90;99.90;;;;;;5035319;28;20384;-63
2023/09/26 02:24:39;;;;;;;2.63;2.42;;;13.80;99.90;;;;;;5044798;28;20068;-63
2023/09/26 02:27:05;;;;;;;10.68;2.78;;;13.80;99.90;;;;;;5046364;28;20045;-63
2023/09/26 02:29:31;;;;;;;3.38;2.40;;;13.70;99.90;;;;;;5045774;28;20052;-63
2023/09/26 02:31:56;;;;;;;6.75;2.80;;;13.60;99.90;;;;;;5043321;28;20110;-63
2023/09/26 02:34:22;;;;;;;3.38;2.97;;;13.60;99.90;;;;;;5046724;28;20048;-63
2023/09/26 02:36:49;;;;;;;3.03;2.58;;;13.60;99.90;;;;;;5046003;28;20041;-63
2023/09/26 02:39:14;;;;;;;3.22;2.55;;;13.50;99.90;;;;;;5046379;28;20127;-63
2023/09/26 02:41:40;;;;;;;2.60;2.40;;;13.50;99.90;;;;;;5045297;28;20510;-63
2023/09/26 02:44:06;;;;;;;2.70;2.50;;;13.40;99.90;;;;;;5045317;28;20170;-63
2023/09/26 02:46:33;;;;;;;2.92;2.40;;;13.30;99.90;;;;;;5046122;28;20128;-63
2023/09/26 02:49:00;;;;;;;2.28;2.00;;;13.30;99.90;;;;;;5028183;28;20049;-63
2023/09/26 02:51:26;;;;;;;2.50;2.30;;;13.30;99.90;;;;;;5044782;28;20056;-63
2023/09/26 02:53:52;;;;;;;3.47;2.80;;;13.20;99.90;;;;;;5032902;28;20116;-63
2023/09/26 02:56:18;;;;;;;4.80;2.88;;;13.20;99.90;;;;;;5047970;28;20452;-63
2023/09/26 02:58:43;;;;;;;2.50;2.30;;;13.20;99.90;;;;;;5046476;28;20124;-63
2023/09/26 03:01:15;;;;;;;4.40;2.35;;;13.10;99.90;;;;;;5047268;28;20064;-64
2023/09/26 03:03:41;;;;;;;3.58;2.63;;;13.10;99.90;;;;;;5046923;28;20044;-63
2023/09/26 03:06:06;;;;;;;2.85;2.55;;;13.10;99.90;;;;;;5045569;28;20045;-64
2023/09/26 03:08:32;;;;;;;3.42;2.95;;;13.00;99.90;;;;;;5047118;28;20499;-63
2023/09/26 03:10:59;;;;;;;2.97;2.40;;;12.90;99.90;;;;;;5045295;28;20045;-63
2023/09/26 03:13:25;;;;;;;3.92;2.95;;;12.90;99.90;;;;;;5046610;28;20056;-63
2023/09/26 03:15:57;;;;;;;3.13;2.83;;;12.90;99.90;;;;;;5044638;28;20053;-63
2023/09/26 03:18:22;;;;;;;3.30;2.78;;;12.80;99.90;;;;;;5045397;28;20048;-63
2023/09/26 03:20:48;;;;;;;4.47;2.33;;;12.80;99.90;;;;;;5047269;28;20045;-63
2023/09/26 03:23:14;;;;;;;3.67;2.60;;;12.80;99.90;;;;;;5041286;28;20435;-63
2023/09/26 03:25:40;;;;;;;4.00;2.63;;;12.80;99.90;;;;;;5058966;28;20487;-63
2023/09/26 03:28:05;;;;;;;2.75;2.42;;;12.70;99.90;;;;;;5057992;28;20045;-63
2023/09/26 03:30:31;;;;;;;3.63;3.10;;;12.70;99.90;;;;;;5062924;28;20060;-63
2023/09/26 03:32:57;;;;;;;4.05;2.80;;;12.60;99.90;;;;;;5046171;28;20045;-63
2023/09/26 03:35:23;;;;;;;3.10;2.90;;;12.60;99.90;;;;;;5040471;28;20530;-63
2023/09/26 03:37:49;;;;;;;3.40;3.10;;;12.60;99.90;;;;;;5050324;28;20099;-63
2023/09/26 03:40:15;;;;;;;3.67;2.60;;;12.60;99.90;;;;;;5050433;28;20060;-63
2023/09/26 03:42:40;;;;;;;4.10;2.80;;;12.50;99.90;;;;;;5049738;28;20102;-63
2023/09/26 03:45:07;;;;;;;2.75;2.55;;;12.50;99.90;;;;;;5047503;28;20142;-63
2023/09/26 03:47:33;;;;;;;3.30;2.97;;;12.50;99.90;;;;;;5051140;28;20057;-63
2023/09/26 03:49:59;;;;;;;5.70;3.15;;;12.50;99.90;;;;;;5048851;28;20044;-63
2023/09/26 03:52:25;;;;;;;3.20;2.90;;;12.40;99.90;;;;;;5050648;28;20487;-63
2023/09/26 03:54:51;;;;;;;3.08;2.78;;;12.40;99.90;;;;;;5046224;28;20048;-63
2023/09/26 03:57:16;;;;;;;3.60;2.47;;;12.40;99.90;;;;;;5049210;28;20032;-63
2023/09/26 03:59:42;;;;;;;3.00;2.80;;;12.40;99.90;;;;;;5032791;28;20076;-63
2023/09/26 04:02:08;;;;;;;4.07;3.60;;;12.30;99.90;;;;;;5049220;28;20037;-63
2023/09/26 04:04:34;;;;;;;7.03;4.22;;;12.30;99.90;;;;;;5050496;28;20507;-63
2023/09/26 04:07:00;;;;;;;6.38;2.90;;;12.30;99.90;;;;;;5045407;28;20040;-63
2023/09/26 04:09:26;;;;;;;5.03;3.28;;;12.30;99.90;;;;;;5050314;28;20140;-63
2023/09/26 04:11:51;;;;;;;4.13;3.00;;;12.30;99.90;;;;;;5048887;28;20087;-63
2023/09/26 04:14:17;;;;;;;4.68;3.03;;;12.30;99.90;;;;;;5050224;28;20044;-63
2023/09/26 04:16:43;;;;;;;3.88;3.15;;;12.20;99.90;;;;;;5044320;28;20037;-63
2023/09/26 04:19:08;;;;;;;3.42;3.13;;;12.20;99.90;;;;;;5048957;28;20052;-63
2023/09/26 04:21:34;;;;;;;8.10;2.80;;;12.20;99.90;;;;;;5048972;28;20041;-63
2023/09/26 04:24:04;;;;;;;4.22;3.38;;;12.20;99.90;;;;;;5048421;28;20629;-63
2023/09/26 04:26:30;;;;;;;4.97;3.40;;;12.20;99.90;;;;;;5044911;28;20112;-63
2023/09/26 04:28:55;;;;;;;3.30;3.00;;;12.20;99.90;;;;;;5048231;28;20128;-63
2023/09/26 04:31:21;;;;;;;3.90;3.50;;;12.10;99.90;;;;;;5048695;28;20048;-63
2023/09/26 04:33:51;;;;;;;5.47;3.15;;;12.10;99.90;;;;;;5049424;28;20033;-63
2023/09/26 04:36:16;;;;;;;7.85;3.78;;;12.10;99.90;;;;;;5030579;28;20045;-63
2023/09/26 04:38:43;;;;;;;7.30;3.10;;;12.10;99.90;;;;;;5050048;28;20083;-63
2023/09/26 04:41:09;;;;;;;4.20;3.25;;;12.10;99.90;;;;;;5046370;28;20443;-63
2023/09/26 04:43:36;;;;;;;3.53;3.17;;;12.10;99.90;;;;;;5048870;28;20041;-63
2023/09/26 04:46:02;;;;;;;4.25;3.30;;;12.00;99.90;;;;;;5048174;28;20049;-63
2023/09/26 04:48:28;;;;;;;5.20;3.50;;;12.00;99.90;;;;;;5049313;28;20045;-63
2023/09/26 04:50:54;;;;;;;6.78;3.13;;;12.00;99.90;;;;;;5047754;28;20052;-63
2023/09/26 04:53:21;;;;;;;3.53;3.15;;;12.00;99.90;;;;;;5049657;28;20072;-63
2023/09/26 04:55:47;;;;;;;5.45;3.20;;;11.90;99.90;;;;;;5049360;28;20041;-63
2023/09/26 04:58:12;;;;;;;6.03;3.40;;;11.90;99.90;;;;;;5035285;28;20052;-63
2023/09/26 05:00:38;;;;;;;6.38;4.00;;;11.90;99.90;;;;;;5045100;28;20455;-63
2023/09/26 05:03:04;;;;;;;4.32;3.60;;;11.90;99.90;;;;;;5044293;28;20529;-63
2023/09/26 05:05:30;;;;;;;5.25;3.97;;;11.90;99.90;;;;;;5047831;28;20045;-63
2023/09/26 05:07:55;;;;;;;5.35;3.70;;;11.90;99.90;;;;;;5040007;28;20049;-63
2023/09/26 05:10:25;;;;;;;4.65;3.45;;;11.90;99.90;;;;;;5046479;28;20506;-63
2023/09/26 05:12:50;;;;;;;3.87;3.57;;;11.90;99.90;;;;;;5047415;28;20090;-63
2023/09/26 05:15:17;;;;;;;5.97;4.22;;;11.90;99.90;;;;;;5038516;28;20486;-63
2023/09/26 05:17:52;;;;;;;4.28;3.80;;;11.90;99.90;;;;;;5036625;28;20048;-63
2023/09/26 05:20:18;;;;;;;5.85;3.63;;;11.90;99.90;;;;;;5032606;28;20049;-63
2023/09/26 05:22:46;;;;;;;18.10;3.50;;;11.90;99.90;;;;;;5036882;28;20152;-63
2023/09/26 05:25:12;;;;;;;5.82;3.75;;;12.00;99.90;;;;;;5047228;28;20403;-63
2023/09/26 05:27:39;;;;;;;4.45;3.25;;;12.00;99.90;;;;;;5036638;28;20048;-63
2023/09/26 05:30:09;;;;;;;6.70;4.20;;;12.00;99.90;;;;;;5033359;28;20037;-63
2023/09/26 05:32:35;;;;;;;6.07;3.63;;;12.00;99.90;;;;;;5043094;28;20481;-63
2023/09/26 05:35:04;;;;;;;4.53;3.85;;;12.00;99.90;;;;;;5036989;28;20046;-63
2023/09/26 05:37:30;;;;;;;8.40;3.08;;;12.10;99.90;;;;;;5041620;28;20037;-63
2023/09/26 05:39:55;;;;;;;4.30;3.40;;;12.10;99.90;;;;;;5038157;28;20124;-63
2023/09/26 05:42:22;;;;;;;4.35;3.65;;;12.10;99.90;;;;;;5041207;28;20128;-63
2023/09/26 05:44:48;;;;;;;6.95;3.42;;;12.10;99.90;;;;;;5040137;28;20824;-63
2023/09/26 05:47:13;;;;;;;6.30;3.70;;;12.10;99.90;;;;;;5038673;28;20040;-63
2023/09/26 05:49:39;;;;;;;3.67;2.83;;;12.10;99.90;;;;;;5025168;28;20072;-63
2023/09/26 05:52:05;;;;;;;3.85;3.15;;;12.10;99.90;;;;;;5037279;28;20050;-63
2023/09/26 05:54:31;;;;;;;4.15;3.17;;;12.10;99.90;;;;;;5042328;28;20041;-63
2023/09/26 05:56:57;;;;;;;5.22;3.80;;;12.10;99.90;;;;;;5040115;28;20514;-63
2023/09/26 05:59:23;;;;;;;3.92;3.53;;;12.10;99.90;;;;;;5041119;28;20124;-63
2023/09/26 06:01:49;;;;;;;5.65;3.38;;;12.10;99.90;;;;;;5043666;28;20476;-63
2023/09/26 06:04:15;;;;;;;6.97;3.80;;;12.10;99.90;;;;;;5043121;28;20467;-63
2023/09/26 06:06:41;;;;;;;4.40;3.33;;;12.10;99.90;;;;;;5033283;28;20480;-63
2023/09/26 06:09:06;;;;;;;4.57;3.25;;;12.10;99.90;;;;;;5035067;28;20222;-63
2023/09/26 06:11:32;;;;;;;8.48;3.70;;;12.20;99.90;;;;;;5037071;28;20057;-63
2023/09/26 06:13:58;;;;;;;3.70;3.45;;;12.20;99.90;;;;;;5035957;28;20060;-63
2023/09/26 06:16:24;;;;;;;5.63;3.50;;;12.30;99.90;;;;;;5035072;28;20136;-63
2023/09/26 06:18:49;;;;;;;5.35;3.53;;;12.30;99.90;;;;;;5036493;28;20048;-63
2023/09/26 06:21:15;;;;;;;8.93;3.70;;;12.30;99.90;;;;;;5032042;28;20044;-63
2023/09/26 06:23:41;;;;;;;7.85;3.60;;;12.40;99.90;;;;;;5032406;28;20064;-63
2023/09/26 06:26:07;;;;;;;7.30;3.47;;;12.40;99.90;;;;;;5018825;28;20107;-63
2023/09/26 06:28:34;;;;;;;3.75;3.45;;;12.50;99.90;;;;;;5038840;28;20050;-63
2023/09/26 06:31:10;;;;;;;4.90;3.53;;;12.60;99.90;;;;;;5037193;28;20036;-63
2023/09/26 06:33:36;;;;;;;5.07;3.92;;;12.70;99.90;;;;;;5028741;28;20558;-63
2023/09/26 06:36:11;;;;;;;8.82;4.07;;;12.70;99.90;;;;;;5040348;28;20041;-63
2023/09/26 06:38:37;;;;;;;4.68;3.50;;;12.80;99.90;;;;;;5031319;28;20127;-63
2023/09/26 06:41:05;;;;;;;4.97;3.75;;;12.90;99.90;;;;;;5042906;28;20845;-62
2023/09/26 06:43:30;;;;;;;5.30;3.85;;;13.00;99.90;;;;;;5039311;28;20068;-63
2023/09/26 06:45:56;;;;;;;4.32;3.92;;;13.10;99.90;;;;;;5036337;28;20503;-63
2023/09/26 06:48:22;;;;;;;4.20;3.53;;;13.30;99.90;;;;;;5037997;28;20099;-63
2023/09/26 06:50:48;;;;;;;4.50;3.85;;;13.60;99.90;;;;;;5044649;28;20394;-63
2023/09/26 06:53:13;;;;;;;5.68;3.92;;;13.70;99.90;;;;;;5043710;28;20041;-63
2023/09/26 06:55:39;;;;;;;5.10;3.80;;;13.70;99.90;;;;;;5044764;28;20105;-63
2023/09/26 06:58:06;;;;;;;4.13;3.78;;;13.80;99.90;;;;;;5046674;28;20095;-63
2023/09/26 07:00:32;;;;;;;4.53;3.60;;;13.90;99.90;;;;;;5022513;28;20508;-63
2023/09/26 07:02:57;;;;;;;4.00;3.60;;;13.90;99.90;;;;;;5044649;28;20082;-63
2023/09/26 07:05:26;;;;;;;8.02;3.58;;;14.00;99.90;;;;;;5042376;28;20102;-63
2023/09/26 07:07:52;;;;;;;4.20;3.70;;;14.00;99.90;;;;;;5041039;28;20407;-63
2023/09/26 07:10:18;;;;;;;4.90;3.60;;;14.10;99.90;;;;;;5042826;28;20426;-63
2023/09/26 07:12:44;;;;;;;7.45;4.05;;;14.20;99.90;;;;;;5044177;28;20045;-63
2023/09/26 07:15:13;;;;;;;4.50;3.97;;;14.30;99.90;;;;;;5041898;28;20038;-63
2023/09/26 07:17:39;;;;;;;5.07;4.00;;;14.50;99.90;;;;;;5027870;28;20046;-63
2023/09/26 07:20:13;;;;;;;5.60;4.00;;;14.60;99.90;;;;;;5038160;28;20041;-63
2023/09/26 07:22:43;;;;;;;7.60;4.70;;;14.80;99.90;;;;;;5030417;28;20123;-63
2023/09/26 07:25:11;;;;;;;7.93;4.70;;;15.00;99.90;;;;;;5035607;28;20049;-63
2023/09/26 07:27:37;;;;;;;6.70;4.63;;;15.20;99.90;;;;;;5029496;28;20046;-63
2023/09/26 07:30:04;;;;;;;7.78;4.80;;;15.30;99.90;;;;;;5032052;28;20041;-63
2023/09/26 07:32:30;;;;;;;6.43;4.72;;;15.60;99.90;;;;;;5037956;28;20091;-63
2023/09/26 07:34:57;;;;;;;5.00;4.50;;;15.70;99.90;;;;;;5032713;28;20598;-63
2023/09/26 07:37:22;;;;;;;4.95;4.32;;;15.90;99.90;;;;;;5037395;28;20044;-63
2023/09/26 07:39:51;;;;;;;9.68;5.10;;;16.00;99.90;;;;;;5039090;28;20156;-63
2023/09/26 07:42:19;;;;;;;6.05;4.78;;;16.10;99.90;;;;;;5039315;28;20052;-63
2023/09/26 07:44:45;;;;;;;5.30;4.53;;;16.10;99.90;;;;;;5044509;28;20507;-63
2023/09/26 07:47:11;;;;;;;8.48;4.43;;;16.30;99.90;;;;;;5034126;28;20041;-63
2023/09/26 07:49:37;;;;;;;5.95;4.72;;;16.40;99.90;;;;;;5036175;28;20076;-63
2023/09/26 07:52:03;;;;;;;5.85;4.50;;;16.50;99.90;;;;;;5039071;28;20042;-63
2023/09/26 07:54:29;;;;;;;6.43;4.82;;;16.60;99.90;;;;;;5039764;28;20033;-63
2023/09/26 07:56:54;;;;;;;7.38;4.75;;;16.70;99.90;;;;;;5035145;28;20527;-64
2023/09/26 07:59:22;;;;;;;7.72;5.18;;;16.60;99.90;;;;;;5040542;28;20471;-63
2023/09/26 08:01:47;;;;;;;6.03;4.70;;;16.50;99.90;;;;;;5038155;28;20445;-63
2023/09/26 08:04:13;;;;;;;9.63;4.93;;;16.60;99.90;;;;;;5037037;28;20036;-63
2023/09/26 08:06:39;;;;;;;4.68;4.28;;;16.60;99.90;;;;;;5036348;28;20075;-64
2023/09/26 08:09:04;;;;;;;5.95;4.03;;;16.60;99.90;;;;;;5036422;28;20052;-63
2023/09/26 08:11:30;;;;;;;4.97;4.25;;;16.70;99.90;;;;;;5046131;28;20148;-63
2023/09/26 08:13:57;;;;;;;5.18;4.15;;;16.70;99.90;;;;;;5026917;28;20046;-63
2023/09/26 08:16:23;;;;;;;5.97;4.65;;;16.80;99.90;;;;;;5028131;28;20483;-63
2023/09/26 08:18:50;;;;;;;7.10;4.18;;;16.80;99.90;;;;;;5037870;28;20483;-63
2023/09/26 08:21:16;;;;;;;8.73;4.55;;;16.70;99.90;;;;;;5045138;28;20081;-63
2023/09/26 08:23:42;;;;;;;5.97;3.95;;;16.70;99.90;;;;;;5029806;28;20037;-63
2023/09/26 08:26:11;;;;;;;5.88;4.05;;;16.80;99.90;;;;;;5029840;28;20128;-63
2023/09/26 08:28:41;;;;;;;8.02;4.15;;;16.80;99.90;;;;;;5032585;28;20041;-63
2023/09/26 08:31:14;;;;;;;7.45;4.10;;;16.90;99.90;;;;;;5034002;28;20107;-63
2023/09/26 08:33:40;;;;;;;6.80;3.85;;;17.00;99.90;;;;;;5030793;28;20041;-64
2023/09/26 08:36:14;;;;;;;11.80;3.90;;;17.00;99.90;;;;;;5042227;28;20041;-63
2023/09/26 08:38:39;;;;;;;7.30;4.20;;;17.00;99.90;;;;;;5038319;28;20075;-63
2023/09/26 08:41:05;;;;;;;3.88;3.58;;;17.10;99.90;;;;;;5037457;28;20046;-63
2023/09/26 08:43:33;;;;;;;7.22;4.18;;;17.10;99.90;;;;;;5054614;28;20041;-63
2023/09/26 08:45:59;;;;;;;4.18;3.42;;;17.10;99.90;;;;;;5037674;28;20491;-63
2023/09/26 08:48:25;;;;;;;5.55;3.67;;;17.20;99.90;;;;;;5031701;28;20091;-63
2023/09/26 08:50:52;;;;;;;4.95;3.55;;;17.20;99.90;;;;;;5035871;28;20400;-63
2023/09/26 08:53:18;;;;;;;4.85;3.50;;;17.30;99.90;;;;;;5032482;28;20045;-63
2023/09/26 08:55:45;;;;;;;6.88;4.15;;;17.30;99.90;;;;;;5034962;28;20530;-64
2023/09/26 08:58:13;;;;;;;4.95;3.70;;;17.40;99.90;;;;;;5043350;28;20086;-63
2023/09/26 09:00:39;;;;;;;7.25;3.92;;;17.40;99.90;;;;;;5032129;28;20483;-64
2023/09/26 09:03:04;;;;;;;4.03;3.38;;;17.40;99.90;;;;;;5033680;28;20049;-64
2023/09/26 09:05:30;;;;;;;4.43;3.40;;;17.50;99.90;;;;;;5034800;28;20194;-63
2023/09/26 09:07:56;;;;;;;5.28;3.28;;;17.50;99.90;;;;;;5027513;28;20062;-63
2023/09/26 09:10:22;;;;;;;4.28;3.47;;;17.60;99.90;;;;;;5039493;28;20551;-63
2023/09/26 09:12:49;;;;;;;4.72;3.65;;;17.60;99.90;;;;;;5027565;28;20405;-63
2023/09/26 09:15:15;;;;;;;5.65;3.50;;;17.70;99.90;;;;;;5037126;28;20063;-63
2023/09/26 09:17:49;;;;;;;4.85;3.42;;;17.70;99.90;;;;;;5030607;28;20033;-63
2023/09/26 09:20:27;;;;;;;6.18;4.28;;;17.80;99.90;;;;;;5038365;28;20041;-63
2023/09/26 09:23:06;;;;;;;5.13;3.78;;;17.80;99.90;;;;;;5029274;28;20050;-63
2023/09/26 09:25:37;;;;;;;6.10;3.83;;;17.80;99.40;;;;;;5030394;28;20052;-63
2023/09/26 09:28:06;;;;;;;3.75;3.30;;;17.80;99.90;;;;;;5060380;28;20315;-64
2023/09/26 09:30:42;;;;;;;4.53;3.30;;;17.90;99.90;;;;;;5046755;28;20140;-63
2023/09/26 09:33:10;;;;;;;5.18;3.80;;;18.00;99.90;;;;;;5037195;28;20362;-63
2023/09/26 09:35:36;;;;;;;3.90;3.50;;;18.10;99.90;;;;;;5040488;28;20567;-63
2023/09/26 09:38:03;;;;;;;4.38;3.58;;;18.30;99.90;;;;;;5038305;28;20045;-63
2023/09/26 09:40:31;;;;;;;5.55;3.15;;;18.40;99.40;;;;;;5038175;28;20396;-64
2023/09/26 09:42:57;;;;;;;3.70;3.40;;;18.60;98.20;;;;;;5041864;28;20475;-63
2023/09/26 09:45:26;;;;;;;10.40;3.45;;;18.80;98.80;;;;;;5041030;28;20060;-63
2023/09/26 09:47:56;;;;;;;4.63;3.25;;;19.00;95.60;;;;;;5034658;28;20049;-63
2023/09/26 09:50:23;;;;;;;4.55;3.67;;;19.10;93.20;;;;;;5042033;28;20037;-63
2023/09/26 09:52:55;;;;;;;4.15;3.30;;;19.30;90.80;;;;;;5038673;28;20049;-63
2023/09/26 09:55:28;;;;;;;6.45;3.30;;;19.40;85.50;;;;;;5036600;28;20037;-64
2023/09/26 09:57:57;;;;;;;3.83;3.10;;;19.40;83.80;;;;;;5031110;28;20400;-64
2023/09/26 10:00:24;;;;;;;5.05;3.17;;;19.40;79.30;;;;;;5033120;28;20051;-63
2023/09/26 10:02:57;;;;;;;5.22;3.47;;;19.30;82.60;;;;;;5030021;28;20065;-64
2023/09/26 10:05:25;;;;;;;6.85;3.50;;;19.30;83.90;;;;;;5034134;28;20044;-64
2023/09/26 10:07:52;;;;;;;6.05;3.30;;;19.30;84.60;;;;;;5030866;28;20473;-64
2023/09/26 10:10:18;;;;;;;4.85;3.25;;;19.40;87.40;;;;;;5041691;28;20513;-63
2023/09/26 10:12:44;;;;;;;6.80;3.33;;;19.50;89.70;;;;;;5045759;28;20045;-63
2023/09/26 10:15:11;;;;;;;3.53;3.22;;;19.60;89.10;;;;;;5037084;28;20082;-63
2023/09/26 10:17:41;;;;;;;4.15;3.38;;;19.60;91.10;;;;;;5042543;28;20041;-64
2023/09/26 10:20:11;;;;;;;5.88;3.28;;;19.70;90.30;;;;;;5039895;28;20052;-63
2023/09/26 10:22:41;;;;;;;3.60;2.80;;;19.80;75.30;;;;;;5041748;28;20037;-64
2023/09/26 10:25:08;;;;;;;4.03;3.08;;;19.80;76.70;;;;;;5033396;28;20259;-63
2023/09/26 10:27:34;;;;;;;5.80;3.05;;;19.90;79.30;;;;;;5039292;28;20040;-63
2023/09/26 10:30:03;;;;;;;5.68;2.97;;;20.00;71.50;;;;;;5030232;28;20090;-63
2023/09/26 10:32:34;;;;;;;3.95;3.17;;;20.00;61.60;;;;;;5041820;28;20041;-63
2023/09/26 10:35:15;;;;;;;5.07;3.03;;;20.00;58.00;;;;;;5031866;28;20499;-63
2023/09/26 10:37:52;;;;;;;3.20;2.97;;;20.00;61.00;;;;;;5036795;28;20471;-63
2023/09/26 10:40:18;;;;;;;5.93;3.30;;;19.90;59.70;;;;;;5040435;28;20487;-63
2023/09/26 10:42:46;;;;;;;5.93;3.05;;;19.90;61.90;;;;;;5035880;28;20071;-63
2023/09/26 10:45:13;;;;;;;4.88;3.03;;;19.90;63.30;;;;;;5037225;28;20033;-64
2023/09/26 10:47:40;;;;;;;4.35;3.47;;;19.90;54.60;;;;;;5037117;28;20045;-63
2023/09/26 10:50:12;;;;;;;5.85;3.47;;;19.90;58.50;;;;;;5035507;28;20045;-63
2023/09/26 10:52:46;;;;;;;5.65;2.90;;;19.90;51.20;;;;;;5036836;28;20115;-63
2023/09/26 10:55:21;;;;;;;2.90;2.53;;;19.90;54.60;;;;;;5034379;28;20037;-63
2023/09/26 10:57:50;;;;;;;6.85;3.03;;;19.90;50.70;;;;;;5036863;28;20509;-64
2023/09/26 11:00:17;;;;;;;2.67;2.45;;;19.90;50.60;;;;;;5041645;28;20571;-63
2023/09/26 11:02:44;;;;;;;5.32;2.92;;;19.90;44.20;;;;;;5031260;28;20055;-64
2023/09/26 11:05:12;;;;;;;3.17;2.88;;;20.00;37.30;;;;;;5034679;28;20395;-64
2023/09/26 11:07:38;;;;;;;5.68;3.30;;;20.00;34.00;;;;;;5029222;28;20045;-63
2023/09/26 11:10:05;;;;;;;6.20;3.10;;;19.90;35.70;;;;;;5039544;28;20505;-64
2023/09/26 11:12:32;;;;;;;2.92;2.72;;;20.00;43.60;;;;;;5047415;28;20044;-64
2023/09/26 11:15:01;;;;;;;4.15;3.28;;;20.10;40.70;;;;;;5043434;28;20394;-63
2023/09/26 11:17:28;;;;;;;3.53;3.08;;;20.20;39.90;;;;;;5044264;28;20115;-63
2023/09/26 11:19:57;;;;;;;4.10;2.70;;;20.20;40.60;;;;;;5042475;28;20067;-63
2023/09/26 11:22:24;;;;;;;;;;;20.30;34.90;;;;;;5052922;28;20049;-63
2023/09/26 11:25:06;;;;;;;2.65;2.20;;;20.30;29.90;;;;;;5037584;28;19929;-64
2023/09/26 11:27:40;;;;;;;3.30;2.78;;;20.30;24.10;;;;;;5041851;28;20051;-64
2023/09/26 11:30:13;;;;;;;3.65;2.40;;;20.30;25.80;;;;;;5030354;28;20045;-64
2023/09/26 11:32:50;;;;;;;5.13;3.42;;;20.30;20.10;;;;;;5039471;28;20120;-64
2023/09/26 11:35:16;;;;;;;4.18;3.10;;;20.30;28.30;;;;;;5061862;28;20051;-64
2023/09/26 11:37:43;;;;;;;4.32;3.05;;;20.30;24.50;;;;;;5033105;28;20044;-63
2023/09/26 11:40:11;;;;;;;5.57;2.92;;;20.40;23.90;;;;;;5032152;28;20445;-63
2023/09/26 11:42:59;;;;;;;3.28;2.95;;;20.40;19.40;;;;;;5039174;28;20164;-63
2023/09/26 11:45:26;;;;;;;4.50;2.70;;;20.40;20.00;;;;;;5031495;28;20041;-64
2023/09/26 11:47:54;;;;;;;3.25;2.28;;;20.40;20.50;;;;;;5047169;28;20084;-64
2023/09/26 11:50:20;;;;;;;2.45;2.25;;;20.40;22.30;;;;;;5046132;28;20041;-63
2023/09/26 11:52:47;;;;;;;3.17;2.90;;;20.30;14.00;;;;;;5050738;28;20048;-63
2023/09/26 11:55:16;;;;;;;3.08;2.78;;;20.40;17.00;;;;;;5042105;28;20043;-63
2023/09/26 11:57:43;;;;;;;3.45;2.60;;;20.40;16.20;;;;;;5048179;28;20049;-63
2023/09/26 12:00:15;;;;;;;2.88;2.38;;;20.40;21.20;;;;;;5045124;28;20049;-63
2023/09/26 12:02:44;;;;;;;3.75;2.38;;;20.40;20.60;;;;;;5048223;28;20048;-63
2023/09/26 12:05:11;;;;;;;2.97;2.65;;;20.40;13.40;;;;;;5035325;28;20084;-64
2023/09/26 12:07:39;;;;;;;4.07;2.60;;;20.50;15.40;;;;;;5037383;28;20118;-64
2023/09/26 12:10:06;;;;;;;8.63;3.13;;;20.60;18.90;;;;;;5059982;28;20053;-63
2023/09/26 12:12:31;;;;;;;4.65;2.30;;;20.70;17.10;;;;;;5035333;28;20349;-63
2023/09/26 12:15:25;;;;;;;3.33;1.95;;;20.70;16.00;;;;;;5041176;28;20050;-63
2023/09/26 12:17:52;;;;;;;5.32;2.30;;;20.70;1.00;;;;;;5030831;28;20605;-63
2023/09/26 12:20:22;;;;;;;3.42;1.70;;;20.70;1.00;;;;;;5034507;28;20495;-63
2023/09/26 12:22:49;;;;;;;2.08;1.80;;;20.70;1.00;;;;;;5048627;28;20041;-63
2023/09/26 12:25:15;;;;;;;1.70;1.58;;;20.70;1.00;;;;;;5040892;28;20045;-63
2023/09/26 12:27:41;;;;;;;1.92;1.60;;;20.70;1.00;;;;;;5029330;28;20501;-64
2023/09/26 12:30:07;;;;;;;2.20;1.77;;;20.60;1.00;;;;;;5034325;28;20071;-63
2023/09/26 12:32:33;;;;;;;7.00;2.00;;;20.60;1.00;;;;;;5040051;28;20452;-63
2023/09/26 12:34:59;;;;;;;2.78;1.77;;;20.60;1.00;;;;;;5040098;28;20546;-63
2023/09/26 12:37:25;;;;;;;3.08;1.67;;;20.70;1.00;;;;;;5039517;28;20442;-64
2023/09/26 12:39:51;;;;;;;2.80;1.98;;;20.70;1.00;;;;;;5042104;28;20110;-63
2023/09/26 12:42:16;;;;;;;3.53;1.73;;;20.70;1.00;;;;;;5041647;28;20056;-63
2023/09/26 12:44:42;;;;;;;1.92;1.83;;;20.70;1.00;;;;;;5007507;28;20037;-63
2023/09/26 12:47:09;;;;;;;1.70;1.60;;;20.80;1.00;;;;;;5029391;28;20506;-63
2023/09/26 12:49:35;;;;;;;5.40;1.45;;;20.80;1.00;;;;;;5037680;28;20098;-64